sensor_id;sensor_type;location;lat;lon;timestamp;temperature;humidity
9658;DHT22;4867;48.112;11.622;2022-10-16T00:01:23;13.10;99.90
9658;DHT22;4867;48.112;11.622;2022-10-16T00:03:51;13.20;99.90
9658;DHT22;4867;48.112;11.622;2022-10-16T00:06:20;13.20;99.90
9658;DHT22;4867;48.112;11.622;2022-10-16T00:08:49;13.20;99.90
9658;DHT22;4867;48.112;11.622;2022-10-16T00:11:24;13.10;99.90
9658;DHT22;4867;48.112;11.622;2022-10-16T00:13:55;13.10;99.90
9658;DHT22;4867;48.112;11.622;2022-10-16T00:16:23;13.10;99.90
9658;DHT22;4867;48.112;11.622;2022-10-16T00:18:50;13.10;99.90
9658;DHT22;4867;48.112;11.622;2022-10-16T00:21:20;13.00;99.90
9658;DHT22;4867;48.112;11.622;2022-10-16T00:23:54;13.00;99.90
9658;DHT22;4867;48.112;11.622;2022-10-16T00:26:22;13.00;99.90
9658;DHT22;4867;48.112;11.622;2022-10-16T00:28:51;12.90;99.90
9658;DHT22;4867;48.112;11.622;2022-10-16T00:31:20;12.90;99.90
9658;DHT22;4867;48.112;11.622;2022-10-16T00:33:48;12.90;99.90
9658;DHT22;4867;48.112;11.622;2022-10-16T00:36:19;12.90;99.90
9658;DHT22;4867;48.112;11.622;2022-10-16T00:38:46;12.90;99.90
9658;DHT22;4867;48.112;11.622;2022-10-16T00:41:16;12.80;99.90
9658;DHT22;4867;48.112;11.622;2022-10-16T00:46:20;12.70;99.90
9658;DHT22;4867;48.112;11.622;2022-10-16T00:49:15;12.70;99.90
9658;DHT22;4867;48.112;11.622;2022-10-16T00:51:50;12.70;99.90
9658;DHT22;4867;48.112;11.622;2022-10-16T00:54:26;12.70;99.90
9658;DHT22;4867;48.112;11.622;2022-10-16T00:56:55;12.60;99.90
9658;DHT22;4867;48.112;11.622;2022-10-16T00:59:35;12.50;99.90
9658;DHT22;4867;48.112;11.622;2022-10-16T01:02:05;12.60;99.90
9658;DHT22;4867;48.112;11.622;2022-10-16T01:04:45;12.60;99.90
9658;DHT22;4867;48.112;11.622;2022-10-16T01:07:35;12.50;99.90
9658;DHT22;4867;48.112;11.622;2022-10-16T01:15:33;12.50;99.90
9658;DHT22;4867;48.112;11.622;2022-10-16T01:18:14;12.50;99.90
9658;DHT22;4867;48.112;11.622;2022-10-16T01:21:16;12.50;99.90
9658;DHT22;4867;48.112;11.622;2022-10-16T01:27:01;12.50;99.90
9658;DHT22;4867;48.112;11.622;2022-10-16T01:32:38;12.50;99.90
9658;DHT22;4867;48.112;11.622;2022-10-16T01:35:16;12.50;99.90
9658;DHT22;4867;48.112;11.622;2022-10-16T01:40:19;12.50;99.90
9658;DHT22;4867;48.112;11.622;2022-10-16T01:43:09;12.50;99.90
9658;DHT22;4867;48.112;11.622;2022-10-16T01:45:38;12.50;99.90
9658;DHT22;4867;48.112;11.622;2022-10-16T01:48:07;12.50;99.90
9658;DHT22;4867;48.112;11.622;2022-10-16T01:50:38;12.40;99.90
9658;DHT22;4867;48.112;11.622;2022-10-16T01:53:08;12.40;99.90
9658;DHT22;4867;48.112;11.622;2022-10-16T01:55:40;12.40;99.90
9658;DHT22;4867;48.112;11.622;2022-10-16T01:58:13;12.40;99.90
9658;DHT22;4867;48.112;11.622;2022-10-16T02:00:43;12.40;99.90
9658;DHT22;4867;48.112;11.622;2022-10-16T02:03:12;12.50;99.90
9658;DHT22;4867;48.112;11.622;2022-10-16T02:08:19;12.40;99.90
9658;DHT22;4867;48.112;11.622;2022-10-16T02:10:47;12.30;99.90
9658;DHT22;4867;48.112;11.622;2022-10-16T02:13:23;12.30;99.90
9658;DHT22;4867;48.112;11.622;2022-10-16T02:15:53;12.20;99.90
9658;DHT22;4867;48.112;11.622;2022-10-16T02:18:21;12.20;99.90
9658;DHT22;4867;48.112;11.622;2022-10-16T02:20:58;12.30;99.90
9658;DHT22;4867;48.112;11.622;2022-10-16T02:23:50;12.20;99.90
9658;DHT22;4867;48.112;11.622;2022-10-16T02:26:47;12.20;99.90
9658;DHT22;4867;48.112;11.622;2022-10-16T02:29:20;12.20;99.90
9658;DHT22;4867;48.112;11.622;2022-10-16T02:31:50;12.20;99.90
9658;DHT22;4867;48.112;11.622;2022-10-16T02:34:21;12.20;99.90
9658;DHT22;4867;48.112;11.622;2022-10-16T02:36:50;12.20;99.90
9658;DHT22;4867;48.112;11.622;2022-10-16T02:39:18;12.20;99.90
9658;DHT22;4867;48.112;11.622;2022-10-16T02:41:47;12.20;99.90
9658;DHT22;4867;48.112;11.622;2022-10-16T02:44:14;12.20;99.90
9658;DHT22;4867;48.112;11.622;2022-10-16T02:46:42;12.30;99.90
9658;DHT22;4867;48.112;11.622;2022-10-16T02:49:09;12.20;99.90
9658;DHT22;4867;48.112;11.622;2022-10-16T02:51:36;12.30;99.90
9658;DHT22;4867;48.112;11.622;2022-10-16T02:54:03;12.30;99.90
9658;DHT22;4867;48.112;11.622;2022-10-16T02:56:30;12.30;99.90
9658;DHT22;4867;48.112;11.622;2022-10-16T02:58:58;12.30;99.90
9658;DHT22;4867;48.112;11.622;2022-10-16T03:01:25;12.20;99.90
9658;DHT22;4867;48.112;11.622;2022-10-16T03:03:52;12.20;99.90
9658;DHT22;4867;48.112;11.622;2022-10-16T03:06:19;12.40;99.90
9658;DHT22;4867;48.112;11.622;2022-10-16T03:08:47;12.30;99.90
9658;DHT22;4867;48.112;11.622;2022-10-16T03:11:14;12.20;99.90
9658;DHT22;4867;48.112;11.622;2022-10-16T03:13:41;12.20;99.90
9658;DHT22;4867;48.112;11.622;2022-10-16T03:16:08;12.20;99.90
9658;DHT22;4867;48.112;11.622;2022-10-16T03:18:35;12.10;99.90
9658;DHT22;4867;48.112;11.622;2022-10-16T03:21:03;12.20;99.90
9658;DHT22;4867;48.112;11.622;2022-10-16T03:23:30;12.10;99.90
9658;DHT22;4867;48.112;11.622;2022-10-16T03:26:02;12.00;99.90
9658;DHT22;4867;48.112;11.622;2022-10-16T03:28:29;12.10;99.90
9658;DHT22;4867;48.112;11.622;2022-10-16T03:30:57;12.10;99.90
9658;DHT22;4867;48.112;11.622;2022-10-16T03:33:24;12.20;99.90
9658;DHT22;4867;48.112;11.622;2022-10-16T03:35:54;12.00;99.90
9658;DHT22;4867;48.112;11.622;2022-10-16T03:38:22;12.10;99.90
9658;DHT22;4867;48.112;11.622;2022-10-16T03:40:49;12.00;99.90
9658;DHT22;4867;48.112;11.622;2022-10-16T03:43:16;12.10;99.90
9658;DHT22;4867;48.112;11.622;2022-10-16T03:45:43;12.10;99.90
9658;DHT22;4867;48.112;11.622;2022-10-16T03:48:10;12.10;99.90
9658;DHT22;4867;48.112;11.622;2022-10-16T03:50:38;12.10;99.90
9658;DHT22;4867;48.112;11.622;2022-10-16T03:53:05;12.20;99.90
9658;DHT22;4867;48.112;11.622;2022-10-16T03:55:32;12.20;99.90
9658;DHT22;4867;48.112;11.622;2022-10-16T03:58:00;12.20;99.90
9658;DHT22;4867;48.112;11.622;2022-10-16T04:00:27;12.30;99.90
9658;DHT22;4867;48.112;11.622;2022-10-16T04:02:54;12.40;99.90
9658;DHT22;4867;48.112;11.622;2022-10-16T04:05:21;12.40;99.90
9658;DHT22;4867;48.112;11.622;2022-10-16T04:07:48;12.40;99.90
9658;DHT22;4867;48.112;11.622;2022-10-16T04:10:16;12.40;99.90
9658;DHT22;4867;48.112;11.622;2022-10-16T04:12:43;12.50;99.90
9658;DHT22;4867;48.112;11.622;2022-10-16T04:15:10;12.40;99.90
9658;DHT22;4867;48.112;11.622;2022-10-16T04:17:38;12.50;99.90
9658;DHT22;4867;48.112;11.622;2022-10-16T04:20:05;12.50;99.90
9658;DHT22;4867;48.112;11.622;2022-10-16T04:22:33;12.50;99.90
9658;DHT22;4867;48.112;11.622;2022-10-16T04:25:00;12.50;99.90
9658;DHT22;4867;48.112;11.622;2022-10-16T04:27:27;12.60;99.90
9658;DHT22;4867;48.112;11.622;2022-10-16T04:29:57;12.60;99.90
9658;DHT22;4867;48.112;11.622;2022-10-16T04:32:24;12.70;99.90
9658;DHT22;4867;48.112;11.622;2022-10-16T04:34:52;12.70;99.90
9658;DHT22;4867;48.112;11.622;2022-10-16T04:37:22;12.70;99.90
9658;DHT22;4867;48.112;11.622;2022-10-16T04:39:50;12.70;99.90
9658;DHT22;4867;48.112;11.622;2022-10-16T04:42:17;12.70;99.90
9658;DHT22;4867;48.112;11.622;2022-10-16T04:44:45;12.70;99.90
9658;DHT22;4867;48.112;11.622;2022-10-16T04:47:12;12.70;99.90
9658;DHT22;4867;48.112;11.622;2022-10-16T04:49:40;12.80;99.90
9658;DHT22;4867;48.112;11.622;2022-10-16T04:52:07;12.70;99.90
9658;DHT22;4867;48.112;11.622;2022-10-16T04:54:36;12.80;99.90
9658;DHT22;4867;48.112;11.622;2022-10-16T04:57:03;12.80;99.90
9658;DHT22;4867;48.112;11.622;2022-10-16T04:59:31;12.80;99.90
9658;DHT22;4867;48.112;11.622;2022-10-16T05:01:59;12.80;99.90
9658;DHT22;4867;48.112;11.622;2022-10-16T05:04:26;12.80;99.90
9658;DHT22;4867;48.112;11.622;2022-10-16T05:06:53;12.90;99.90
9658;DHT22;4867;48.112;11.622;2022-10-16T05:09:20;12.90;99.90
9658;DHT22;4867;48.112;11.622;2022-10-16T05:11:48;12.80;99.90
9658;DHT22;4867;48.112;11.622;2022-10-16T05:14:15;12.80;99.90
9658;DHT22;4867;48.112;11.622;2022-10-16T05:16:43;12.90;99.90
9658;DHT22;4867;48.112;11.622;2022-10-16T05:19:10;13.00;99.90
9658;DHT22;4867;48.112;11.622;2022-10-16T05:21:55;13.00;99.90
9658;DHT22;4867;48.112;11.622;2022-10-16T05:24:22;13.00;99.90
9658;DHT22;4867;48.112;11.622;2022-10-16T05:26:50;13.00;99.90
9658;DHT22;4867;48.112;11.622;2022-10-16T05:29:18;13.00;99.90
9658;DHT22;4867;48.112;11.622;2022-10-16T05:31:45;13.10;99.90
9658;DHT22;4867;48.112;11.622;2022-10-16T05:34:12;13.10;99.90
9658;DHT22;4867;48.112;11.622;2022-10-16T05:36:40;13.10;99.90
9658;DHT22;4867;48.112;11.622;2022-10-16T05:39:07;13.00;99.90
9658;DHT22;4867;48.112;11.622;2022-10-16T05:41:34;13.20;99.90
9658;DHT22;4867;48.112;11.622;2022-10-16T05:44:04;13.10;99.90
9658;DHT22;4867;48.112;11.622;2022-10-16T05:46:33;13.20;99.90
9658;DHT22;4867;48.112;11.622;2022-10-16T05:49:00;13.10;99.90
9658;DHT22;4867;48.112;11.622;2022-10-16T05:51:27;13.20;99.90
9658;DHT22;4867;48.112;11.622;2022-10-16T05:53:54;13.10;99.90
9658;DHT22;4867;48.112;11.622;2022-10-16T05:56:22;13.10;99.90
9658;DHT22;4867;48.112;11.622;2022-10-16T05:58:49;13.10;99.90
9658;DHT22;4867;48.112;11.622;2022-10-16T06:01:18;13.30;99.90
9658;DHT22;4867;48.112;11.622;2022-10-16T06:03:45;13.10;99.90
9658;DHT22;4867;48.112;11.622;2022-10-16T06:08:41;13.10;99.90
9658;DHT22;4867;48.112;11.622;2022-10-16T06:11:11;13.10;99.90
9658;DHT22;4867;48.112;11.622;2022-10-16T06:13:39;13.20;99.90
9658;DHT22;4867;48.112;11.622;2022-10-16T06:16:09;13.10;99.90
9658;DHT22;4867;48.112;11.622;2022-10-16T06:18:37;13.20;99.90
9658;DHT22;4867;48.112;11.622;2022-10-16T06:21:14;13.10;99.90
9658;DHT22;4867;48.112;11.622;2022-10-16T06:23:43;13.20;99.90
9658;DHT22;4867;48.112;11.622;2022-10-16T06:26:18;13.10;99.90
9658;DHT22;4867;48.112;11.622;2022-10-16T06:28:46;13.20;99.90
9658;DHT22;4867;48.112;11.622;2022-10-16T06:31:14;13.20;99.90
9658;DHT22;4867;48.112;11.622;2022-10-16T06:33:42;13.30;99.90
9658;DHT22;4867;48.112;11.622;2022-10-16T06:36:11;13.30;99.90
9658;DHT22;4867;48.112;11.622;2022-10-16T06:38:39;13.30;99.90
9658;DHT22;4867;48.112;11.622;2022-10-16T06:41:09;13.50;99.90
9658;DHT22;4867;48.112;11.622;2022-10-16T06:43:38;13.40;99.90
9658;DHT22;4867;48.112;11.622;2022-10-16T06:46:08;13.50;99.90
9658;DHT22;4867;48.112;11.622;2022-10-16T06:48:37;13.60;99.90
9658;DHT22;4867;48.112;11.622;2022-10-16T06:51:07;13.60;99.90
9658;DHT22;4867;48.112;11.622;2022-10-16T06:53:37;13.70;99.90
9658;DHT22;4867;48.112;11.622;2022-10-16T06:56:16;13.80;99.90
9658;DHT22;4867;48.112;11.622;2022-10-16T06:58:44;13.70;99.90
9658;DHT22;4867;48.112;11.622;2022-10-16T07:01:12;13.70;99.90
9658;DHT22;4867;48.112;11.622;2022-10-16T07:03:41;13.70;99.90
9658;DHT22;4867;48.112;11.622;2022-10-16T07:06:10;13.90;99.90
9658;DHT22;4867;48.112;11.622;2022-10-16T07:08:39;13.80;99.90
9658;DHT22;4867;48.112;11.622;2022-10-16T07:11:13;13.80;99.90
9658;DHT22;4867;48.112;11.622;2022-10-16T07:13:42;13.90;99.90
9658;DHT22;4867;48.112;11.622;2022-10-16T07:16:22;13.90;99.90
9658;DHT22;4867;48.112;11.622;2022-10-16T07:18:49;13.90;99.90
9658;DHT22;4867;48.112;11.622;2022-10-16T07:21:22;14.00;99.90
9658;DHT22;4867;48.112;11.622;2022-10-16T07:23:51;14.30;99.90
9658;DHT22;4867;48.112;11.622;2022-10-16T07:26:18;14.30;99.90
9658;DHT22;4867;48.112;11.622;2022-10-16T07:28:46;14.30;99.90
9658;DHT22;4867;48.112;11.622;2022-10-16T07:31:14;14.50;99.90
9658;DHT22;4867;48.112;11.622;2022-10-16T07:33:43;14.50;99.90
9658;DHT22;4867;48.112;11.622;2022-10-16T07:36:13;14.70;99.90
9658;DHT22;4867;48.112;11.622;2022-10-16T07:38:43;14.80;99.90
9658;DHT22;4867;48.112;11.622;2022-10-16T07:41:12;14.80;99.90
9658;DHT22;4867;48.112;11.622;2022-10-16T07:43:40;14.90;99.90
9658;DHT22;4867;48.112;11.622;2022-10-16T07:46:07;15.10;99.90
9658;DHT22;4867;48.112;11.622;2022-10-16T07:48:35;15.10;99.90
9658;DHT22;4867;48.112;11.622;2022-10-16T07:51:05;15.20;99.90
9658;DHT22;4867;48.112;11.622;2022-10-16T07:53:33;15.40;99.90
9658;DHT22;4867;48.112;11.622;2022-10-16T07:56:02;15.50;99.90
9658;DHT22;4867;48.112;11.622;2022-10-16T07:58:30;15.60;99.90
9658;DHT22;4867;48.112;11.622;2022-10-16T08:00:57;15.60;99.90
9658;DHT22;4867;48.112;11.622;2022-10-16T08:03:25;15.80;99.90
9658;DHT22;4867;48.112;11.622;2022-10-16T08:05:52;15.90;99.90
9658;DHT22;4867;48.112;11.622;2022-10-16T08:08:20;15.90;99.90
9658;DHT22;4867;48.112;11.622;2022-10-16T08:10:47;16.00;99.90
9658;DHT22;4867;48.112;11.622;2022-10-16T08:13:14;16.10;99.90
9658;DHT22;4867;48.112;11.622;2022-10-16T08:15:43;16.30;99.90
9658;DHT22;4867;48.112;11.622;2022-10-16T08:18:12;16.40;99.90
9658;DHT22;4867;48.112;11.622;2022-10-16T08:20:40;16.60;99.90
9658;DHT22;4867;48.112;11.622;2022-10-16T08:23:08;16.70;99.90
9658;DHT22;4867;48.112;11.622;2022-10-16T08:25:36;16.80;99.90
9658;DHT22;4867;48.112;11.622;2022-10-16T08:28:05;16.90;99.90
9658;DHT22;4867;48.112;11.622;2022-10-16T08:30:33;17.00;99.90
9658;DHT22;4867;48.112;11.622;2022-10-16T08:33:01;17.10;99.90
9658;DHT22;4867;48.112;11.622;2022-10-16T08:35:29;17.30;99.90
9658;DHT22;4867;48.112;11.622;2022-10-16T08:37:56;17.30;99.90
9658;DHT22;4867;48.112;11.622;2022-10-16T08:40:26;17.40;99.90
9658;DHT22;4867;48.112;11.622;2022-10-16T08:43:31;17.50;99.90
9658;DHT22;4867;48.112;11.622;2022-10-16T08:46:25;17.60;99.90
9658;DHT22;4867;48.112;11.622;2022-10-16T08:48:57;17.70;99.90
9658;DHT22;4867;48.112;11.622;2022-10-16T08:51:26;17.80;99.90
9658;DHT22;4867;48.112;11.622;2022-10-16T08:54:05;17.90;99.90
9658;DHT22;4867;48.112;11.622;2022-10-16T08:56:32;18.00;99.90
9658;DHT22;4867;48.112;11.622;2022-10-16T08:59:00;18.00;99.90
9658;DHT22;4867;48.112;11.622;2022-10-16T09:01:44;18.10;99.90
9658;DHT22;4867;48.112;11.622;2022-10-16T09:04:46;18.20;99.90
9658;DHT22;4867;48.112;11.622;2022-10-16T09:07:46;18.30;99.90
9658;DHT22;4867;48.112;11.622;2022-10-16T09:16:14;18.70;99.90
9658;DHT22;4867;48.112;11.622;2022-10-16T09:21:33;18.80;99.90
9658;DHT22;4867;48.112;11.622;2022-10-16T09:24:12;19.00;99.90
9658;DHT22;4867;48.112;11.622;2022-10-16T09:26:41;19.10;99.90
9658;DHT22;4867;48.112;11.622;2022-10-16T09:29:13;19.10;99.90
9658;DHT22;4867;48.112;11.622;2022-10-16T09:31:41;19.20;99.90
9658;DHT22;4867;48.112;11.622;2022-10-16T09:34:36;19.40;99.90
9658;DHT22;4867;48.112;11.622;2022-10-16T09:37:09;19.60;99.90
9658;DHT22;4867;48.112;11.622;2022-10-16T09:39:51;19.60;99.90
9658;DHT22;4867;48.112;11.622;2022-10-16T09:42:23;19.70;99.90
9658;DHT22;4867;48.112;11.622;2022-10-16T09:44:53;19.90;99.90
9658;DHT22;4867;48.112;11.622;2022-10-16T09:47:23;20.00;99.90
9658;DHT22;4867;48.112;11.622;2022-10-16T09:52:29;20.20;99.90
9658;DHT22;4867;48.112;11.622;2022-10-16T09:54:59;20.30;99.90
9658;DHT22;4867;48.112;11.622;2022-10-16T09:57:27;20.30;99.90
9658;DHT22;4867;48.112;11.622;2022-10-16T09:59:56;20.40;99.90
9658;DHT22;4867;48.112;11.622;2022-10-16T10:02:37;20.50;99.90
9658;DHT22;4867;48.112;11.622;2022-10-16T10:05:16;20.50;99.90
9658;DHT22;4867;48.112;11.622;2022-10-16T10:07:44;20.50;99.90
9658;DHT22;4867;48.112;11.622;2022-10-16T10:10:28;20.50;99.90
9658;DHT22;4867;48.112;11.622;2022-10-16T10:12:56;20.50;99.90
9658;DHT22;4867;48.112;11.622;2022-10-16T10:15:24;20.60;99.90
9658;DHT22;4867;48.112;11.622;2022-10-16T10:17:55;20.70;99.90
9658;DHT22;4867;48.112;11.622;2022-10-16T10:20:34;20.70;99.90
9658;DHT22;4867;48.112;11.622;2022-10-16T10:23:21;20.80;99.90
9658;DHT22;4867;48.112;11.622;2022-10-16T10:25:50;20.90;99.90
9658;DHT22;4867;48.112;11.622;2022-10-16T10:31:20;21.00;99.90
9658;DHT22;4867;48.112;11.622;2022-10-16T10:36:36;21.20;99.90
9658;DHT22;4867;48.112;11.622;2022-10-16T10:39:25;21.30;99.90
9658;DHT22;4867;48.112;11.622;2022-10-16T10:42:08;21.30;99.90
9658;DHT22;4867;48.112;11.622;2022-10-16T10:50:39;21.50;99.90
9658;DHT22;4867;48.112;11.622;2022-10-16T10:56:30;21.60;99.90
9658;DHT22;4867;48.112;11.622;2022-10-16T11:02:09;21.80;99.90
9658;DHT22;4867;48.112;11.622;2022-10-16T11:05:13;21.90;99.90
9658;DHT22;4867;48.112;11.622;2022-10-16T11:07:50;22.00;99.90
9658;DHT22;4867;48.112;11.622;2022-10-16T11:10:26;22.00;99.90
9658;DHT22;4867;48.112;11.622;2022-10-16T11:15:48;22.10;99.90
9658;DHT22;4867;48.112;11.622;2022-10-16T11:18:24;22.10;99.90
9658;DHT22;4867;48.112;11.622;2022-10-16T11:20:59;22.20;99.90
9658;DHT22;4867;48.112;11.622;2022-10-16T11:23:40;22.30;99.90
9658;DHT22;4867;48.112;11.622;2022-10-16T11:26:17;22.30;99.90
9658;DHT22;4867;48.112;11.622;2022-10-16T11:28:51;22.20;99.90
9658;DHT22;4867;48.112;11.622;2022-10-16T11:31:32;22.30;99.90
9658;DHT22;4867;48.112;11.622;2022-10-16T11:34:06;22.30;99.90
9658;DHT22;4867;48.112;11.622;2022-10-16T11:36:46;22.40;99.90
9658;DHT22;4867;48.112;11.622;2022-10-16T11:39:28;22.40;99.90
9658;DHT22;4867;48.112;11.622;2022-10-16T11:42:13;22.40;99.90
9658;DHT22;4867;48.112;11.622;2022-10-16T11:45:02;22.50;99.90
9658;DHT22;4867;48.112;11.622;2022-10-16T11:47:35;22.60;99.90
9658;DHT22;4867;48.112;11.622;2022-10-16T11:50:35;22.70;99.90
9658;DHT22;4867;48.112;11.622;2022-10-16T11:55:45;22.90;99.90
9658;DHT22;4867;48.112;11.622;2022-10-16T12:01:15;23.00;99.90
9658;DHT22;4867;48.112;11.622;2022-10-16T12:06:46;23.00;99.90
9658;DHT22;4867;48.112;11.622;2022-10-16T12:09:23;23.00;99.90
9658;DHT22;4867;48.112;11.622;2022-10-16T12:11:51;22.80;99.90
9658;DHT22;4867;48.112;11.622;2022-10-16T12:17:01;22.90;99.90
9658;DHT22;4867;48.112;11.622;2022-10-16T12:19:29;23.00;99.90
9658;DHT22;4867;48.112;11.622;2022-10-16T12:22:01;23.00;99.90
9658;DHT22;4867;48.112;11.622;2022-10-16T12:27:00;23.10;99.90
9658;DHT22;4867;48.112;11.622;2022-10-16T12:32:00;23.20;99.90
9658;DHT22;4867;48.112;11.622;2022-10-16T12:34:42;23.20;99.90
9658;DHT22;4867;48.112;11.622;2022-10-16T12:37:14;23.30;99.90
9658;DHT22;4867;48.112;11.622;2022-10-16T12:39:46;23.30;99.90
9658;DHT22;4867;48.112;11.622;2022-10-16T12:44:54;23.30;99.90
9658;DHT22;4867;48.112;11.622;2022-10-16T12:49:59;23.40;99.90
9658;DHT22;4867;48.112;11.622;2022-10-16T12:52:39;23.50;99.90
9658;DHT22;4867;48.112;11.622;2022-10-16T12:55:18;23.50;99.90
9658;DHT22;4867;48.112;11.622;2022-10-16T13:00:45;23.50;99.90
9658;DHT22;4867;48.112;11.622;2022-10-16T13:03:49;23.50;99.90
9658;DHT22;4867;48.112;11.622;2022-10-16T13:06:36;23.50;99.90
9658;DHT22;4867;48.112;11.622;2022-10-16T13:20:33;23.50;99.90
9658;DHT22;4867;48.112;11.622;2022-10-16T13:23:15;23.60;99.90
9658;DHT22;4867;48.112;11.622;2022-10-16T13:28:31;23.60;99.90
9658;DHT22;4867;48.112;11.622;2022-10-16T13:31:01;23.70;99.90
9658;DHT22;4867;48.112;11.622;2022-10-16T13:33:37;23.70;99.90
9658;DHT22;4867;48.112;11.622;2022-10-16T13:36:05;23.70;99.90
9658;DHT22;4867;48.112;11.622;2022-10-16T13:38:35;23.70;99.90
9658;DHT22;4867;48.112;11.622;2022-10-16T13:41:16;23.70;99.90
9658;DHT22;4867;48.112;11.622;2022-10-16T13:43:50;23.80;99.90
9658;DHT22;4867;48.112;11.622;2022-10-16T13:46:20;23.80;99.90
9658;DHT22;4867;48.112;11.622;2022-10-16T13:49:19;23.80;99.90
9658;DHT22;4867;48.112;11.622;2022-10-16T13:51:58;23.80;99.90
9658;DHT22;4867;48.112;11.622;2022-10-16T13:54:27;23.80;99.90
9658;DHT22;4867;48.112;11.622;2022-10-16T13:56:55;23.80;99.90
9658;DHT22;4867;48.112;11.622;2022-10-16T13:59:37;23.80;99.90
9658;DHT22;4867;48.112;11.622;2022-10-16T14:02:17;23.80;99.90
9658;DHT22;4867;48.112;11.622;2022-10-16T14:04:47;23.90;99.90
9658;DHT22;4867;48.112;11.622;2022-10-16T14:07:22;23.90;99.90
9658;DHT22;4867;48.112;11.622;2022-10-16T14:09:52;23.90;99.90
9658;DHT22;4867;48.112;11.622;2022-10-16T14:12:21;23.90;99.90
9658;DHT22;4867;48.112;11.622;2022-10-16T14:14:55;24.00;99.90
9658;DHT22;4867;48.112;11.622;2022-10-16T14:17:31;24.00;99.90
9658;DHT22;4867;48.112;11.622;2022-10-16T14:20:00;24.00;99.90
9658;DHT22;4867;48.112;11.622;2022-10-16T14:22:38;24.00;99.90
9658;DHT22;4867;48.112;11.622;2022-10-16T14:25:24;24.00;99.90
9658;DHT22;4867;48.112;11.622;2022-10-16T14:28:33;24.00;99.90
9658;DHT22;4867;48.112;11.622;2022-10-16T14:30:57;23.90;99.90
9658;DHT22;4867;48.112;11.622;2022-10-16T14:33:32;24.00;99.90
9658;DHT22;4867;48.112;11.622;2022-10-16T14:36:11;24.00;99.90
9658;DHT22;4867;48.112;11.622;2022-10-16T14:38:43;24.00;99.90
9658;DHT22;4867;48.112;11.622;2022-10-16T14:41:15;24.00;99.90
9658;DHT22;4867;48.112;11.622;2022-10-16T14:43:43;24.00;99.90
9658;DHT22;4867;48.112;11.622;2022-10-16T14:46:20;24.00;99.90
9658;DHT22;4867;48.112;11.622;2022-10-16T14:49:00;24.00;99.90
9658;DHT22;4867;48.112;11.622;2022-10-16T14:51:27;23.90;99.90
9658;DHT22;4867;48.112;11.622;2022-10-16T14:53:55;23.90;99.90
9658;DHT22;4867;48.112;11.622;2022-10-16T14:56:30;23.90;99.90
9658;DHT22;4867;48.112;11.622;2022-10-16T14:59:00;23.80;99.90
9658;DHT22;4867;48.112;11.622;2022-10-16T15:01:27;23.70;99.90
9658;DHT22;4867;48.112;11.622;2022-10-16T15:03:55;23.60;99.90
9658;DHT22;4867;48.112;11.622;2022-10-16T15:06:22;23.50;99.90
9658;DHT22;4867;48.112;11.622;2022-10-16T15:08:49;23.40;99.90
9658;DHT22;4867;48.112;11.622;2022-10-16T15:11:18;23.30;99.90
9658;DHT22;4867;48.112;11.622;2022-10-16T15:13:46;23.30;99.90
9658;DHT22;4867;48.112;11.622;2022-10-16T15:16:15;23.10;99.90
9658;DHT22;4867;48.112;11.622;2022-10-16T15:18:43;23.10;99.90
9658;DHT22;4867;48.112;11.622;2022-10-16T15:23:50;22.90;99.90
9658;DHT22;4867;48.112;11.622;2022-10-16T15:26:17;22.80;99.90
9658;DHT22;4867;48.112;11.622;2022-10-16T15:28:45;22.80;99.90
9658;DHT22;4867;48.112;11.622;2022-10-16T15:31:12;22.70;99.90
9658;DHT22;4867;48.112;11.622;2022-10-16T15:33:39;22.70;99.90
9658;DHT22;4867;48.112;11.622;2022-10-16T15:36:07;22.60;99.90
9658;DHT22;4867;48.112;11.622;2022-10-16T15:38:34;22.50;99.90
9658;DHT22;4867;48.112;11.622;2022-10-16T15:41:02;22.40;99.90
9658;DHT22;4867;48.112;11.622;2022-10-16T15:43:29;22.30;99.90
9658;DHT22;4867;48.112;11.622;2022-10-16T15:46:03;22.30;99.90
9658;DHT22;4867;48.112;11.622;2022-10-16T15:48:32;22.20;99.90
9658;DHT22;4867;48.112;11.622;2022-10-16T15:51:00;22.10;99.90
9658;DHT22;4867;48.112;11.622;2022-10-16T15:53:31;22.00;99.90
9658;DHT22;4867;48.112;11.622;2022-10-16T15:56:04;22.00;99.90
9658;DHT22;4867;48.112;11.622;2022-10-16T15:58:32;21.90;99.90
9658;DHT22;4867;48.112;11.622;2022-10-16T16:01:00;21.80;99.90
9658;DHT22;4867;48.112;11.622;2022-10-16T16:03:30;21.70;99.90
9658;DHT22;4867;48.112;11.622;2022-10-16T16:05:57;21.60;99.90
9658;DHT22;4867;48.112;11.622;2022-10-16T16:08:24;21.50;99.90
9658;DHT22;4867;48.112;11.622;2022-10-16T16:11:00;21.40;99.90
9658;DHT22;4867;48.112;11.622;2022-10-16T16:13:28;21.30;99.90
9658;DHT22;4867;48.112;11.622;2022-10-16T16:15:55;21.20;99.90
9658;DHT22;4867;48.112;11.622;2022-10-16T16:18:22;21.10;99.90
9658;DHT22;4867;48.112;11.622;2022-10-16T16:20:51;21.00;99.90
9658;DHT22;4867;48.112;11.622;2022-10-16T16:23:18;20.90;99.90
9658;DHT22;4867;48.112;11.622;2022-10-16T16:28:29;20.70;99.90
9658;DHT22;4867;48.112;11.622;2022-10-16T16:30:57;20.60;99.90
9658;DHT22;4867;48.112;11.622;2022-10-16T16:33:24;20.50;99.90
9658;DHT22;4867;48.112;11.622;2022-10-16T16:35:57;20.40;99.90
9658;DHT22;4867;48.112;11.622;2022-10-16T16:38:25;20.40;99.90
9658;DHT22;4867;48.112;11.622;2022-10-16T16:40:53;20.20;99.90
9658;DHT22;4867;48.112;11.622;2022-10-16T16:43:26;20.10;99.90
9658;DHT22;4867;48.112;11.622;2022-10-16T16:45:54;20.00;99.90
9658;DHT22;4867;48.112;11.622;2022-10-16T16:48:22;19.90;99.90
9658;DHT22;4867;48.112;11.622;2022-10-16T16:50:49;19.80;99.90
9658;DHT22;4867;48.112;11.622;2022-10-16T16:53:16;19.70;99.90
9658;DHT22;4867;48.112;11.622;2022-10-16T16:55:43;19.60;99.90
9658;DHT22;4867;48.112;11.622;2022-10-16T16:58:11;19.50;99.90
9658;DHT22;4867;48.112;11.622;2022-10-16T17:00:45;19.50;99.90
9658;DHT22;4867;48.112;11.622;2022-10-16T17:03:23;19.30;99.90
9658;DHT22;4867;48.112;11.622;2022-10-16T17:06:01;19.20;99.90
9658;DHT22;4867;48.112;11.622;2022-10-16T17:08:29;19.20;99.90
9658;DHT22;4867;48.112;11.622;2022-10-16T17:10:57;19.10;99.90
9658;DHT22;4867;48.112;11.622;2022-10-16T17:13:26;19.00;99.90
9658;DHT22;4867;48.112;11.622;2022-10-16T17:15:54;19.00;99.90
9658;DHT22;4867;48.112;11.622;2022-10-16T17:18:23;18.90;99.90
9658;DHT22;4867;48.112;11.622;2022-10-16T17:20:50;18.90;99.90
9658;DHT22;4867;48.112;11.622;2022-10-16T17:23:18;18.80;99.90
9658;DHT22;4867;48.112;11.622;2022-10-16T17:25:46;18.70;99.90
9658;DHT22;4867;48.112;11.622;2022-10-16T17:28:13;18.60;99.90
9658;DHT22;4867;48.112;11.622;2022-10-16T17:30:41;18.50;99.90
9658;DHT22;4867;48.112;11.622;2022-10-16T17:33:10;18.50;99.90
9658;DHT22;4867;48.112;11.622;2022-10-16T17:35:44;18.40;99.90
9658;DHT22;4867;48.112;11.622;2022-10-16T17:38:13;18.30;99.90
9658;DHT22;4867;48.112;11.622;2022-10-16T17:40:42;18.30;99.90
9658;DHT22;4867;48.112;11.622;2022-10-16T17:43:09;18.20;99.90
9658;DHT22;4867;48.112;11.622;2022-10-16T17:45:37;18.10;99.90
9658;DHT22;4867;48.112;11.622;2022-10-16T17:48:06;18.00;99.90
9658;DHT22;4867;48.112;11.622;2022-10-16T17:50:33;17.90;99.90